RPC6432 RPVV-RPLI
Flight info
| Callsign | RPC6432 |
|---|---|
| Flight time | 2h 20m |
| Altitude | 7000 |
| Route | OLRAX W3 LUBAN B591 SBA TR24 CIA/N0183F060 W16 TATIL/N0181F070 DCT MELAN MELAN1 |
| Aircraft | BE36/L-BDFGLORY/S |
Departure
| Time | 2026-04-21 03:11 |
|---|---|
| Airport | Francisco B. Reyes (Busuanga) Airport (RPVV) |
Arrival
| Time | 2026-04-21 05:31 |
|---|---|
| Airport | Laoag International Airport (RPLI) |
| Time | Latitude | Longitude | Altitude | Speed | Heading |
|---|---|---|---|---|---|
| 2026-04-21 02:54 | 12.12029 | 120.09826 | 180 ft | 0 kts | 173° |
| 2026-04-21 03:08 | 12.12028 | 120.09826 | 180 ft | 1 kts | 166° |
| 2026-04-21 03:08 | 12.12030 | 120.09835 | 180 ft | 4 kts | 354° |
| 2026-04-21 03:09 | 12.12085 | 120.09819 | 178 ft | 8 kts | 335° |
| 2026-04-21 03:09 | 12.12138 | 120.09759 | 177 ft | 10 kts | 309° |
| 2026-04-21 03:09 | 12.12159 | 120.09745 | 177 ft | 0 kts | 85° |
| 2026-04-21 03:10 | 12.12167 | 120.09810 | 176 ft | 30 kts | 85° |
| 2026-04-21 03:10 | 12.12201 | 120.10186 | 179 ft | 76 kts | 83° |
| 2026-04-21 03:10 | 12.12247 | 120.10790 | 316 ft | 91 kts | 85° |
| 2026-04-21 03:10 | 12.12294 | 120.11443 | 564 ft | 93 kts | 84° |
| 2026-04-21 03:11 | 12.12350 | 120.12114 | 800 ft | 97 kts | 84° |
| 2026-04-21 03:11 | 12.12399 | 120.12795 | 1102 ft | 97 kts | 83° |
| 2026-04-21 03:11 | 12.12438 | 120.13490 | 1444 ft | 101 kts | 83° |
| 2026-04-21 03:11 | 12.12496 | 120.14210 | 1781 ft | 103 kts | 81° |
| 2026-04-21 03:12 | 12.12859 | 120.14832 | 2155 ft | 112 kts | 39° |
| 2026-04-21 03:12 | 12.13668 | 120.14985 | 2354 ft | 127 kts | 5° |
| 2026-04-21 03:12 | 12.14543 | 120.14879 | 2575 ft | 126 kts | 1° |
| 2026-04-21 03:12 | 12.15410 | 120.14744 | 2759 ft | 126 kts | 0° |
| 2026-04-21 03:13 | 12.16280 | 120.14585 | 2918 ft | 128 kts | 360° |
| 2026-04-21 03:13 | 12.17160 | 120.14464 | 3081 ft | 125 kts | 12° |
| 2026-04-21 03:13 | 12.17953 | 120.14725 | 3228 ft | 118 kts | 30° |
| 2026-04-21 03:13 | 12.18713 | 120.15021 | 3438 ft | 117 kts | 29° |
| 2026-04-21 03:14 | 12.19474 | 120.15321 | 3617 ft | 118 kts | 29° |
| 2026-04-21 03:14 | 12.20245 | 120.15623 | 3795 ft | 120 kts | 28° |
| 2026-04-21 03:14 | 12.21051 | 120.15863 | 3964 ft | 122 kts | 22° |
| 2026-04-21 03:14 | 12.21891 | 120.16052 | 4114 ft | 124 kts | 21° |
| 2026-04-21 03:15 | 12.22739 | 120.16255 | 4258 ft | 125 kts | 22° |
| 2026-04-21 03:15 | 12.23586 | 120.16478 | 4394 ft | 127 kts | 22° |
| 2026-04-21 03:15 | 12.24450 | 120.16701 | 4522 ft | 128 kts | 22° |
| 2026-04-21 03:15 | 12.25303 | 120.16921 | 4658 ft | 128 kts | 22° |
| 2026-04-21 03:16 | 12.26164 | 120.17144 | 4805 ft | 127 kts | 22° |
| 2026-04-21 03:16 | 12.27019 | 120.17368 | 4952 ft | 126 kts | 22° |
| 2026-04-21 03:16 | 12.27867 | 120.17595 | 5108 ft | 126 kts | 22° |
| 2026-04-21 03:16 | 12.28714 | 120.17817 | 5265 ft | 125 kts | 22° |
| 2026-04-21 03:17 | 12.29559 | 120.18029 | 5419 ft | 125 kts | 22° |
| 2026-04-21 03:17 | 12.30398 | 120.18245 | 5572 ft | 124 kts | 22° |
| 2026-04-21 03:17 | 12.31229 | 120.18466 | 5726 ft | 123 kts | 22° |
| 2026-04-21 03:17 | 12.32059 | 120.18681 | 5881 ft | 122 kts | 22° |
| 2026-04-21 03:18 | 12.32883 | 120.18891 | 6035 ft | 122 kts | 22° |
| 2026-04-21 03:18 | 12.33706 | 120.19105 | 6166 ft | 123 kts | 22° |
| 2026-04-21 03:18 | 12.34542 | 120.19323 | 6295 ft | 125 kts | 22° |
| 2026-04-21 03:18 | 12.35386 | 120.19542 | 6424 ft | 126 kts | 22° |
| 2026-04-21 03:19 | 12.36239 | 120.19762 | 6553 ft | 127 kts | 22° |
| 2026-04-21 03:19 | 12.37094 | 120.19984 | 6680 ft | 127 kts | 22° |
| 2026-04-21 03:19 | 12.37954 | 120.20207 | 6808 ft | 128 kts | 21° |
| 2026-04-21 03:19 | 12.38814 | 120.20428 | 6933 ft | 128 kts | 21° |
| 2026-04-21 03:20 | 12.39677 | 120.20651 | 7058 ft | 128 kts | 21° |
| 2026-04-21 03:20 | 12.40544 | 120.20876 | 7181 ft | 129 kts | 22° |
| 2026-04-21 03:20 | 12.41431 | 120.21108 | 7252 ft | 134 kts | 22° |
| 2026-04-21 03:20 | 12.42353 | 120.21350 | 7289 ft | 140 kts | 21° |
| 2026-04-21 03:21 | 12.43315 | 120.21598 | 7307 ft | 146 kts | 21° |
| 2026-04-21 03:21 | 12.44313 | 120.21854 | 7314 ft | 150 kts | 20° |
| 2026-04-21 03:21 | 12.45331 | 120.22116 | 7316 ft | 152 kts | 20° |
| 2026-04-21 03:21 | 12.46350 | 120.22380 | 7315 ft | 154 kts | 20° |
| 2026-04-21 03:22 | 12.47396 | 120.22653 | 7314 ft | 156 kts | 20° |
| 2026-04-21 03:22 | 12.48450 | 120.22927 | 7313 ft | 157 kts | 20° |
| 2026-04-21 03:22 | 12.49513 | 120.23202 | 7312 ft | 158 kts | 20° |
| 2026-04-21 03:22 | 12.50576 | 120.23479 | 7313 ft | 158 kts | 20° |
| 2026-04-21 03:23 | 12.51653 | 120.23759 | 7313 ft | 161 kts | 20° |
| 2026-04-21 03:23 | 12.52374 | 120.23945 | 7313 ft | 162 kts | 20° |
| 2026-04-21 03:23 | 12.53470 | 120.24227 | 7313 ft | 163 kts | 20° |
| 2026-04-21 03:23 | 12.54945 | 120.24611 | 7312 ft | 164 kts | 20° |
| 2026-04-21 03:24 | 12.55680 | 120.24802 | 7313 ft | 165 kts | 20° |
| 2026-04-21 03:24 | 12.56791 | 120.25090 | 7313 ft | 165 kts | 20° |
| 2026-04-21 03:24 | 12.57906 | 120.25380 | 7312 ft | 165 kts | 20° |
| 2026-04-21 03:24 | 12.59020 | 120.25669 | 7311 ft | 165 kts | 20° |
| 2026-04-21 03:25 | 12.60135 | 120.25959 | 7313 ft | 166 kts | 20° |
| 2026-04-21 03:25 | 12.61256 | 120.26250 | 7313 ft | 166 kts | 20° |
| 2026-04-21 03:25 | 12.62752 | 120.26637 | 7312 ft | 166 kts | 20° |
| 2026-04-21 03:25 | 12.63492 | 120.26830 | 7311 ft | 165 kts | 20° |
| 2026-04-21 03:26 | 12.64623 | 120.27124 | 7316 ft | 165 kts | 20° |
| 2026-04-21 03:26 | 12.65724 | 120.27410 | 7319 ft | 166 kts | 20° |
| 2026-04-21 03:26 | 12.66855 | 120.27703 | 7320 ft | 165 kts | 19° |
| 2026-04-21 03:26 | 12.67973 | 120.27996 | 7320 ft | 166 kts | 19° |
| 2026-04-21 03:27 | 12.69088 | 120.28284 | 7321 ft | 166 kts | 19° |
| 2026-04-21 03:27 | 12.70206 | 120.28573 | 7322 ft | 166 kts | 19° |
| 2026-04-21 03:27 | 12.71324 | 120.28863 | 7322 ft | 166 kts | 19° |
| 2026-04-21 03:27 | 12.72445 | 120.29156 | 7322 ft | 166 kts | 19° |
| 2026-04-21 03:28 | 12.73565 | 120.29447 | 7323 ft | 166 kts | 19° |
| 2026-04-21 03:28 | 12.74687 | 120.29738 | 7322 ft | 166 kts | 19° |
| 2026-04-21 03:28 | 12.75810 | 120.30030 | 7321 ft | 167 kts | 19° |
| 2026-04-21 03:28 | 12.76933 | 120.30322 | 7321 ft | 167 kts | 19° |
| 2026-04-21 03:29 | 12.78058 | 120.30615 | 7318 ft | 167 kts | 19° |
| 2026-04-21 03:29 | 12.79184 | 120.30906 | 7315 ft | 167 kts | 19° |
| 2026-04-21 03:29 | 12.80309 | 120.31199 | 7313 ft | 167 kts | 19° |
| 2026-04-21 03:29 | 12.81419 | 120.31488 | 7312 ft | 167 kts | 19° |
| 2026-04-21 03:30 | 12.82543 | 120.31781 | 7313 ft | 167 kts | 19° |
| 2026-04-21 03:30 | 12.83665 | 120.32073 | 7314 ft | 166 kts | 19° |
| 2026-04-21 03:30 | 12.84788 | 120.32365 | 7314 ft | 166 kts | 19° |
| 2026-04-21 03:30 | 12.85912 | 120.32657 | 7314 ft | 167 kts | 19° |
| 2026-04-21 03:31 | 12.87036 | 120.32950 | 7314 ft | 167 kts | 19° |
| 2026-04-21 03:31 | 12.88159 | 120.33241 | 7314 ft | 166 kts | 19° |
| 2026-04-21 03:31 | 12.89280 | 120.33532 | 7313 ft | 166 kts | 19° |
| 2026-04-21 03:31 | 12.90400 | 120.33825 | 7314 ft | 166 kts | 19° |
| 2026-04-21 03:32 | 12.91534 | 120.34121 | 7319 ft | 166 kts | 19° |
| 2026-04-21 03:32 | 12.92639 | 120.34409 | 7322 ft | 166 kts | 19° |
| 2026-04-21 03:32 | 12.93762 | 120.34699 | 7322 ft | 167 kts | 19° |
| 2026-04-21 03:32 | 12.94886 | 120.34991 | 7322 ft | 167 kts | 19° |
| 2026-04-21 03:33 | 12.96011 | 120.35285 | 7323 ft | 167 kts | 19° |
| 2026-04-21 03:33 | 12.97134 | 120.35577 | 7321 ft | 167 kts | 19° |
| 2026-04-21 03:33 | 12.98260 | 120.35871 | 7323 ft | 167 kts | 19° |
| 2026-04-21 03:33 | 12.99388 | 120.36165 | 7322 ft | 167 kts | 19° |
| 2026-04-21 03:34 | 13.00511 | 120.36456 | 7323 ft | 166 kts | 19° |
| 2026-04-21 03:34 | 13.01633 | 120.36748 | 7323 ft | 166 kts | 19° |
| 2026-04-21 03:34 | 13.02753 | 120.37041 | 7322 ft | 166 kts | 19° |
| 2026-04-21 03:34 | 13.03874 | 120.37333 | 7322 ft | 166 kts | 19° |
| 2026-04-21 03:35 | 13.04994 | 120.37624 | 7323 ft | 166 kts | 19° |
| 2026-04-21 03:35 | 13.06115 | 120.37917 | 7324 ft | 166 kts | 19° |
| 2026-04-21 03:35 | 13.07237 | 120.38210 | 7324 ft | 166 kts | 19° |
| 2026-04-21 03:35 | 13.08361 | 120.38502 | 7323 ft | 167 kts | 19° |
| 2026-04-21 03:36 | 13.09489 | 120.38795 | 7324 ft | 167 kts | 19° |
| 2026-04-21 03:36 | 13.10617 | 120.39090 | 7324 ft | 167 kts | 19° |
| 2026-04-21 03:36 | 13.11744 | 120.39383 | 7322 ft | 167 kts | 19° |
| 2026-04-21 03:36 | 13.12873 | 120.39678 | 7322 ft | 167 kts | 19° |
| 2026-04-21 03:37 | 13.13998 | 120.39972 | 7323 ft | 167 kts | 19° |
| 2026-04-21 03:37 | 13.15123 | 120.40266 | 7322 ft | 167 kts | 19° |
| 2026-04-21 03:37 | 13.16249 | 120.40559 | 7322 ft | 167 kts | 19° |
| 2026-04-21 03:37 | 13.17375 | 120.40851 | 7322 ft | 167 kts | 19° |
| 2026-04-21 03:38 | 13.18502 | 120.41146 | 7323 ft | 167 kts | 19° |
| 2026-04-21 03:38 | 13.19632 | 120.41441 | 7323 ft | 168 kts | 19° |
| 2026-04-21 03:38 | 13.20762 | 120.41735 | 7323 ft | 168 kts | 19° |
| 2026-04-21 03:38 | 13.21890 | 120.42030 | 7322 ft | 167 kts | 19° |
| 2026-04-21 03:39 | 13.23018 | 120.42324 | 7323 ft | 167 kts | 19° |
| 2026-04-21 03:39 | 13.24146 | 120.42619 | 7323 ft | 167 kts | 19° |
| 2026-04-21 03:39 | 13.25273 | 120.42912 | 7321 ft | 167 kts | 19° |
| 2026-04-21 03:39 | 13.26397 | 120.43206 | 7322 ft | 167 kts | 19° |
| 2026-04-21 03:40 | 13.27524 | 120.43500 | 7323 ft | 167 kts | 19° |
| 2026-04-21 03:40 | 13.28650 | 120.43794 | 7323 ft | 167 kts | 19° |
| 2026-04-21 03:40 | 13.29777 | 120.44089 | 7322 ft | 167 kts | 19° |
| 2026-04-21 03:40 | 13.30906 | 120.44383 | 7322 ft | 168 kts | 18° |
| 2026-04-21 03:41 | 13.31950 | 120.44491 | 7322 ft | 171 kts | 3° |
| 2026-04-21 03:41 | 13.33073 | 120.44059 | 7322 ft | 178 kts | 331° |
| 2026-04-21 03:41 | 13.34098 | 120.43347 | 7323 ft | 178 kts | 328° |
| 2026-04-21 03:41 | 13.35106 | 120.42604 | 7324 ft | 179 kts | 328° |
| 2026-04-21 03:42 | 13.36107 | 120.41853 | 7324 ft | 179 kts | 327° |
| 2026-04-21 03:42 | 13.37115 | 120.41106 | 7321 ft | 178 kts | 329° |
| 2026-04-21 03:42 | 13.38167 | 120.40435 | 7323 ft | 178 kts | 333° |
| 2026-04-21 03:42 | 13.39233 | 120.39795 | 7325 ft | 177 kts | 333° |
| 2026-04-21 03:43 | 13.40288 | 120.39138 | 7329 ft | 177 kts | 332° |
| 2026-04-21 03:43 | 13.41338 | 120.38465 | 7358 ft | 179 kts | 332° |
| 2026-04-21 03:43 | 13.42404 | 120.37791 | 7350 ft | 180 kts | 332° |
| 2026-04-21 03:43 | 13.43479 | 120.37119 | 7340 ft | 181 kts | 332° |
| 2026-04-21 03:44 | 13.44555 | 120.36445 | 7354 ft | 182 kts | 332° |
| 2026-04-21 03:44 | 13.45644 | 120.35760 | 7374 ft | 185 kts | 332° |
| 2026-04-21 03:44 | 13.46746 | 120.35074 | 7347 ft | 185 kts | 331° |
| 2026-04-21 03:44 | 13.47841 | 120.34372 | 7362 ft | 186 kts | 331° |
| 2026-04-21 03:45 | 13.48528 | 120.33937 | 7347 ft | 186 kts | 332° |
| 2026-04-21 03:45 | 13.49638 | 120.33249 | 7351 ft | 187 kts | 332° |
| 2026-04-21 03:45 | 13.50745 | 120.32556 | 7327 ft | 186 kts | 332° |
| 2026-04-21 03:45 | 13.51841 | 120.31863 | 7316 ft | 184 kts | 332° |
| 2026-04-21 03:46 | 13.52927 | 120.31177 | 7317 ft | 182 kts | 332° |
| 2026-04-21 03:46 | 13.54003 | 120.30501 | 7321 ft | 180 kts | 332° |
| 2026-04-21 03:46 | 13.55072 | 120.29831 | 7323 ft | 180 kts | 332° |
| 2026-04-21 03:46 | 13.56135 | 120.29161 | 7326 ft | 179 kts | 332° |
| 2026-04-21 03:47 | 13.57196 | 120.28492 | 7328 ft | 179 kts | 332° |
| 2026-04-21 03:47 | 13.58258 | 120.27825 | 7330 ft | 179 kts | 332° |
| 2026-04-21 03:47 | 13.59317 | 120.27158 | 7331 ft | 178 kts | 332° |
| 2026-04-21 03:47 | 13.60375 | 120.26492 | 7333 ft | 178 kts | 332° |
| 2026-04-21 03:48 | 13.61407 | 120.25842 | 7331 ft | 178 kts | 332° |
| 2026-04-21 03:48 | 13.62492 | 120.25159 | 7329 ft | 178 kts | 332° |
| 2026-04-21 03:48 | 13.63552 | 120.24492 | 7327 ft | 178 kts | 332° |
| 2026-04-21 03:48 | 13.64609 | 120.23828 | 7328 ft | 178 kts | 332° |
| 2026-04-21 03:49 | 13.65660 | 120.23163 | 7328 ft | 177 kts | 332° |
| 2026-04-21 03:49 | 13.66712 | 120.22499 | 7329 ft | 177 kts | 332° |
| 2026-04-21 03:49 | 13.67763 | 120.21839 | 7328 ft | 177 kts | 332° |
| 2026-04-21 03:49 | 13.68816 | 120.21177 | 7329 ft | 177 kts | 332° |
| 2026-04-21 03:50 | 13.69824 | 120.20541 | 7330 ft | 177 kts | 332° |
| 2026-04-21 03:50 | 13.70918 | 120.19851 | 7329 ft | 177 kts | 332° |
| 2026-04-21 03:50 | 13.71971 | 120.19187 | 7328 ft | 177 kts | 332° |
| 2026-04-21 03:50 | 13.73021 | 120.18526 | 7328 ft | 177 kts | 332° |
| 2026-04-21 03:51 | 13.74059 | 120.17871 | 7341 ft | 177 kts | 332° |
| 2026-04-21 03:51 | 13.75121 | 120.17201 | 7352 ft | 180 kts | 332° |
| 2026-04-21 03:51 | 13.76187 | 120.16532 | 7316 ft | 179 kts | 332° |
| 2026-04-21 03:51 | 13.77237 | 120.15868 | 7284 ft | 175 kts | 332° |
| 2026-04-21 03:52 | 13.78234 | 120.15236 | 7279 ft | 171 kts | 332° |
| 2026-04-21 03:52 | 13.79269 | 120.14582 | 7309 ft | 171 kts | 332° |
| 2026-04-21 03:52 | 13.80286 | 120.13946 | 7322 ft | 171 kts | 332° |
| 2026-04-21 03:52 | 13.81307 | 120.13303 | 7339 ft | 173 kts | 332° |
| 2026-04-21 03:53 | 13.82329 | 120.12655 | 7345 ft | 174 kts | 332° |
| 2026-04-21 03:53 | 13.83366 | 120.12001 | 7357 ft | 176 kts | 332° |
| 2026-04-21 03:53 | 13.84415 | 120.11340 | 7357 ft | 178 kts | 332° |
| 2026-04-21 03:53 | 13.85489 | 120.10715 | 7354 ft | 177 kts | 338° |
| 2026-04-21 03:54 | 13.86664 | 120.10479 | 7373 ft | 172 kts | 12° |
| 2026-04-21 03:54 | 13.87178 | 120.10569 | 7363 ft | 172 kts | 14° |
| 2026-04-21 03:54 | 13.87610 | 120.10657 | 7355 ft | 172 kts | 16° |
| 2026-04-21 03:54 | 13.88778 | 120.10919 | 7342 ft | 171 kts | 17° |
| 2026-04-21 03:55 | 13.89940 | 120.11187 | 7336 ft | 171 kts | 16° |
| 2026-04-21 03:55 | 13.91103 | 120.11444 | 7335 ft | 171 kts | 14° |
| 2026-04-21 03:55 | 13.92285 | 120.11612 | 7334 ft | 171 kts | 10° |
| 2026-04-21 03:55 | 13.93471 | 120.11737 | 7334 ft | 171 kts | 10° |
| 2026-04-21 03:56 | 13.94648 | 120.11882 | 7335 ft | 170 kts | 11° |
| 2026-04-21 03:56 | 13.94957 | 120.11924 | 7335 ft | 170 kts | 12° |
| 2026-04-21 03:56 | 13.96129 | 120.12089 | 7335 ft | 170 kts | 11° |
| 2026-04-21 03:56 | 13.97304 | 120.12239 | 7336 ft | 170 kts | 11° |
| 2026-04-21 03:57 | 13.98479 | 120.12383 | 7336 ft | 170 kts | 11° |
| 2026-04-21 03:57 | 13.99651 | 120.12533 | 7337 ft | 170 kts | 11° |
| 2026-04-21 03:57 | 14.00822 | 120.12687 | 7338 ft | 170 kts | 11° |
| 2026-04-21 03:57 | 14.01990 | 120.12839 | 7338 ft | 169 kts | 11° |
| 2026-04-21 03:58 | 14.03159 | 120.12988 | 7339 ft | 169 kts | 11° |
| 2026-04-21 03:58 | 14.04327 | 120.13136 | 7340 ft | 169 kts | 11° |
| 2026-04-21 03:58 | 14.05497 | 120.13287 | 7340 ft | 169 kts | 11° |
| 2026-04-21 03:58 | 14.06666 | 120.13438 | 7341 ft | 169 kts | 11° |
| 2026-04-21 03:59 | 14.07837 | 120.13588 | 7341 ft | 170 kts | 11° |
| 2026-04-21 03:59 | 14.09008 | 120.13739 | 7341 ft | 170 kts | 11° |
| 2026-04-21 03:59 | 14.10164 | 120.13887 | 7340 ft | 169 kts | 11° |
| 2026-04-21 04:00 | 14.12502 | 120.14189 | 7340 ft | 169 kts | 11° |
| 2026-04-21 04:00 | 14.13673 | 120.14339 | 7341 ft | 170 kts | 11° |
| 2026-04-21 04:00 | 14.14859 | 120.14491 | 7341 ft | 170 kts | 11° |
| 2026-04-21 04:00 | 14.16031 | 120.14643 | 7340 ft | 170 kts | 11° |
| 2026-04-21 04:01 | 14.17187 | 120.14792 | 7340 ft | 169 kts | 11° |
| 2026-04-21 04:01 | 14.18356 | 120.14942 | 7341 ft | 169 kts | 11° |
| 2026-04-21 04:01 | 14.19525 | 120.15093 | 7341 ft | 169 kts | 11° |
| 2026-04-21 04:01 | 14.20697 | 120.15243 | 7342 ft | 170 kts | 11° |
| 2026-04-21 04:02 | 14.21867 | 120.15395 | 7341 ft | 170 kts | 11° |
| 2026-04-21 04:02 | 14.23038 | 120.15545 | 7341 ft | 170 kts | 11° |
| 2026-04-21 04:02 | 14.24207 | 120.15694 | 7340 ft | 169 kts | 11° |
| 2026-04-21 04:02 | 14.25351 | 120.15842 | 7340 ft | 169 kts | 11° |
| 2026-04-21 04:03 | 14.26521 | 120.15994 | 7341 ft | 169 kts | 11° |
| 2026-04-21 04:03 | 14.27692 | 120.16146 | 7341 ft | 170 kts | 11° |
| 2026-04-21 04:03 | 14.28862 | 120.16296 | 7341 ft | 170 kts | 11° |
| 2026-04-21 04:03 | 14.30036 | 120.16446 | 7342 ft | 170 kts | 11° |
| 2026-04-21 04:04 | 14.31210 | 120.16597 | 7342 ft | 170 kts | 11° |
| 2026-04-21 04:04 | 14.32384 | 120.16750 | 7342 ft | 170 kts | 11° |
| 2026-04-21 04:04 | 14.33557 | 120.16903 | 7341 ft | 170 kts | 11° |
| 2026-04-21 04:04 | 14.34732 | 120.17052 | 7340 ft | 170 kts | 11° |
| 2026-04-21 04:05 | 14.35902 | 120.17201 | 7340 ft | 170 kts | 11° |
| 2026-04-21 04:05 | 14.37075 | 120.17354 | 7340 ft | 170 kts | 11° |
| 2026-04-21 04:05 | 14.38248 | 120.17506 | 7341 ft | 170 kts | 11° |
| 2026-04-21 04:05 | 14.39422 | 120.17658 | 7342 ft | 170 kts | 11° |
| 2026-04-21 04:06 | 14.40596 | 120.17808 | 7342 ft | 170 kts | 11° |
| 2026-04-21 04:06 | 14.41772 | 120.17960 | 7342 ft | 171 kts | 11° |
| 2026-04-21 04:06 | 14.42949 | 120.18112 | 7340 ft | 171 kts | 11° |
| 2026-04-21 04:06 | 14.44127 | 120.18264 | 7341 ft | 170 kts | 11° |
| 2026-04-21 04:07 | 14.45303 | 120.18416 | 7341 ft | 171 kts | 11° |
| 2026-04-21 04:07 | 14.46481 | 120.18568 | 7341 ft | 171 kts | 11° |
| 2026-04-21 04:07 | 14.47658 | 120.18720 | 7340 ft | 170 kts | 11° |
| 2026-04-21 04:07 | 14.48438 | 120.18820 | 7340 ft | 170 kts | 11° |
| 2026-04-21 04:08 | 14.50010 | 120.19024 | 7341 ft | 171 kts | 11° |
| 2026-04-21 04:08 | 14.51116 | 120.19166 | 7341 ft | 171 kts | 11° |
| 2026-04-21 04:08 | 14.51896 | 120.19267 | 7341 ft | 170 kts | 11° |
| 2026-04-21 04:08 | 14.53072 | 120.19419 | 7339 ft | 170 kts | 11° |
| 2026-04-21 04:09 | 14.54247 | 120.19571 | 7339 ft | 170 kts | 11° |
| 2026-04-21 04:09 | 14.55416 | 120.19722 | 7340 ft | 170 kts | 11° |
| 2026-04-21 04:09 | 14.56589 | 120.19874 | 7341 ft | 170 kts | 11° |
| 2026-04-21 04:09 | 14.57763 | 120.20027 | 7341 ft | 170 kts | 10° |
| 2026-04-21 04:10 | 14.58939 | 120.20177 | 7342 ft | 170 kts | 10° |
| 2026-04-21 04:10 | 14.60113 | 120.20327 | 7341 ft | 170 kts | 10° |
| 2026-04-21 04:10 | 14.61289 | 120.20480 | 7340 ft | 170 kts | 11° |
| 2026-04-21 04:10 | 14.62467 | 120.20634 | 7340 ft | 170 kts | 11° |
| 2026-04-21 04:11 | 14.63642 | 120.20785 | 7341 ft | 170 kts | 10° |
| 2026-04-21 04:11 | 14.64818 | 120.20937 | 7341 ft | 170 kts | 10° |
| 2026-04-21 04:11 | 14.65994 | 120.21089 | 7341 ft | 170 kts | 10° |
| 2026-04-21 04:11 | 14.67170 | 120.21241 | 7341 ft | 170 kts | 10° |
| 2026-04-21 04:12 | 14.68346 | 120.21393 | 7341 ft | 170 kts | 10° |
| 2026-04-21 04:12 | 14.69521 | 120.21545 | 7341 ft | 170 kts | 10° |
| 2026-04-21 04:12 | 14.70697 | 120.21698 | 7341 ft | 170 kts | 10° |
| 2026-04-21 04:12 | 14.71874 | 120.21850 | 7341 ft | 170 kts | 10° |
| 2026-04-21 04:13 | 14.73052 | 120.22002 | 7342 ft | 171 kts | 10° |
| 2026-04-21 04:13 | 14.74225 | 120.22156 | 7342 ft | 170 kts | 10° |
| 2026-04-21 04:13 | 14.75402 | 120.22306 | 7340 ft | 171 kts | 10° |
| 2026-04-21 04:13 | 14.76579 | 120.22458 | 7340 ft | 170 kts | 10° |
| 2026-04-21 04:14 | 14.77734 | 120.22692 | 7344 ft | 168 kts | 27° |
| 2026-04-21 04:14 | 14.78633 | 120.23427 | 7344 ft | 165 kts | 45° |
| 2026-04-21 04:14 | 14.79479 | 120.24233 | 7343 ft | 165 kts | 45° |
| 2026-04-21 04:14 | 14.80320 | 120.25043 | 7341 ft | 165 kts | 45° |
| 2026-04-21 04:15 | 14.81162 | 120.25853 | 7342 ft | 166 kts | 45° |
| 2026-04-21 04:15 | 14.82045 | 120.26618 | 7341 ft | 166 kts | 40° |
| 2026-04-21 04:15 | 14.82972 | 120.27334 | 7362 ft | 167 kts | 39° |
| 2026-04-21 04:15 | 14.83913 | 120.28072 | 7407 ft | 172 kts | 40° |
| 2026-04-21 04:16 | 14.84861 | 120.28845 | 7418 ft | 175 kts | 40° |
| 2026-04-21 04:16 | 14.85825 | 120.29626 | 7403 ft | 178 kts | 40° |
| 2026-04-21 04:16 | 14.86798 | 120.30403 | 7365 ft | 176 kts | 40° |
| 2026-04-21 04:16 | 14.87767 | 120.31181 | 7376 ft | 176 kts | 40° |
| 2026-04-21 04:17 | 14.88735 | 120.31961 | 7367 ft | 177 kts | 40° |
| 2026-04-21 04:17 | 14.89695 | 120.32727 | 7368 ft | 177 kts | 40° |
| 2026-04-21 04:17 | 14.90666 | 120.33508 | 7351 ft | 177 kts | 40° |
| 2026-04-21 04:17 | 14.91627 | 120.34284 | 7346 ft | 175 kts | 40° |
| 2026-04-21 04:18 | 14.92588 | 120.35053 | 7338 ft | 174 kts | 40° |
| 2026-04-21 04:18 | 14.93537 | 120.35816 | 7322 ft | 172 kts | 40° |
| 2026-04-21 04:18 | 14.94480 | 120.36577 | 7312 ft | 172 kts | 40° |
| 2026-04-21 04:18 | 14.95421 | 120.37333 | 7310 ft | 171 kts | 40° |
| 2026-04-21 04:19 | 14.96360 | 120.38086 | 7311 ft | 171 kts | 40° |
| 2026-04-21 04:19 | 14.97297 | 120.38839 | 7308 ft | 171 kts | 40° |
| 2026-04-21 04:19 | 14.98230 | 120.39589 | 7305 ft | 170 kts | 40° |
| 2026-04-21 04:19 | 14.99160 | 120.40338 | 7308 ft | 169 kts | 40° |
| 2026-04-21 04:20 | 15.00087 | 120.41084 | 7313 ft | 169 kts | 40° |
| 2026-04-21 04:20 | 15.01015 | 120.41831 | 7312 ft | 169 kts | 40° |
| 2026-04-21 04:20 | 15.01942 | 120.42575 | 7310 ft | 169 kts | 40° |
| 2026-04-21 04:20 | 15.02866 | 120.43319 | 7304 ft | 168 kts | 40° |
| 2026-04-21 04:21 | 15.03790 | 120.44065 | 7318 ft | 169 kts | 40° |
| 2026-04-21 04:21 | 15.04718 | 120.44809 | 7318 ft | 169 kts | 40° |
| 2026-04-21 04:21 | 15.05653 | 120.45561 | 7321 ft | 170 kts | 40° |
| 2026-04-21 04:21 | 15.06589 | 120.46314 | 7315 ft | 171 kts | 40° |
| 2026-04-21 04:22 | 15.07526 | 120.47069 | 7315 ft | 171 kts | 40° |
| 2026-04-21 04:22 | 15.08457 | 120.47820 | 7313 ft | 170 kts | 40° |
| 2026-04-21 04:22 | 15.09393 | 120.48575 | 7312 ft | 171 kts | 40° |
| 2026-04-21 04:22 | 15.10331 | 120.49329 | 7310 ft | 171 kts | 40° |
| 2026-04-21 04:23 | 15.11265 | 120.50080 | 7305 ft | 170 kts | 40° |
| 2026-04-21 04:23 | 15.12177 | 120.50817 | 7309 ft | 169 kts | 40° |
| 2026-04-21 04:23 | 15.13124 | 120.51580 | 7319 ft | 170 kts | 40° |
| 2026-04-21 04:23 | 15.14062 | 120.52335 | 7326 ft | 171 kts | 40° |
| 2026-04-21 04:24 | 15.15005 | 120.53093 | 7319 ft | 172 kts | 40° |
| 2026-04-21 04:24 | 15.15945 | 120.53851 | 7314 ft | 171 kts | 40° |
| 2026-04-21 04:24 | 15.16883 | 120.54608 | 7315 ft | 171 kts | 40° |
| 2026-04-21 04:24 | 15.17822 | 120.55365 | 7327 ft | 172 kts | 39° |
| 2026-04-21 04:25 | 15.18931 | 120.55800 | 7327 ft | 176 kts | 5° |
| 2026-04-21 04:25 | 15.20098 | 120.55439 | 7326 ft | 180 kts | 332° |
| 2026-04-21 04:25 | 15.21157 | 120.54779 | 7317 ft | 180 kts | 329° |
| 2026-04-21 04:25 | 15.22215 | 120.54084 | 7310 ft | 179 kts | 330° |
| 2026-04-21 04:26 | 15.23297 | 120.53449 | 7305 ft | 178 kts | 334° |
| 2026-04-21 04:26 | 15.24398 | 120.52859 | 7303 ft | 178 kts | 334° |
| 2026-04-21 04:26 | 15.25487 | 120.52258 | 7303 ft | 177 kts | 333° |
| 2026-04-21 04:26 | 15.26566 | 120.51639 | 7303 ft | 177 kts | 333° |
| 2026-04-21 04:27 | 15.27641 | 120.51028 | 7309 ft | 176 kts | 333° |
| 2026-04-21 04:27 | 15.28717 | 120.50428 | 7314 ft | 176 kts | 333° |
| 2026-04-21 04:27 | 15.29795 | 120.49826 | 7314 ft | 176 kts | 333° |
| 2026-04-21 04:27 | 15.30866 | 120.49222 | 7317 ft | 176 kts | 333° |
| 2026-04-21 04:28 | 15.31941 | 120.48615 | 7321 ft | 176 kts | 333° |
| 2026-04-21 04:28 | 15.33019 | 120.48009 | 7318 ft | 176 kts | 333° |
| 2026-04-21 04:28 | 15.34095 | 120.47406 | 7317 ft | 176 kts | 333° |
| 2026-04-21 04:28 | 15.35170 | 120.46801 | 7317 ft | 176 kts | 333° |
| 2026-04-21 04:29 | 15.36241 | 120.46198 | 7318 ft | 175 kts | 333° |
| 2026-04-21 04:29 | 15.37311 | 120.45595 | 7318 ft | 175 kts | 333° |
| 2026-04-21 04:29 | 15.38382 | 120.44994 | 7321 ft | 175 kts | 333° |
| 2026-04-21 04:29 | 15.39453 | 120.44390 | 7323 ft | 176 kts | 333° |
| 2026-04-21 04:30 | 15.40526 | 120.43784 | 7324 ft | 176 kts | 333° |
| 2026-04-21 04:30 | 15.41600 | 120.43181 | 7324 ft | 176 kts | 333° |
| 2026-04-21 04:30 | 15.42675 | 120.42577 | 7323 ft | 176 kts | 333° |
| 2026-04-21 04:30 | 15.43735 | 120.41978 | 7319 ft | 176 kts | 333° |
| 2026-04-21 04:31 | 15.44809 | 120.41373 | 7320 ft | 176 kts | 333° |
| 2026-04-21 04:31 | 15.45882 | 120.40771 | 7320 ft | 175 kts | 333° |
| 2026-04-21 04:31 | 15.46954 | 120.40167 | 7321 ft | 175 kts | 333° |
| 2026-04-21 04:31 | 15.48026 | 120.39562 | 7319 ft | 175 kts | 333° |
| 2026-04-21 04:32 | 15.49096 | 120.38959 | 7320 ft | 175 kts | 333° |
| 2026-04-21 04:32 | 15.50165 | 120.38358 | 7323 ft | 175 kts | 333° |
| 2026-04-21 04:32 | 15.51231 | 120.37757 | 7322 ft | 174 kts | 332° |
| 2026-04-21 04:32 | 15.52299 | 120.37154 | 7322 ft | 175 kts | 332° |
| 2026-04-21 04:33 | 15.53365 | 120.36551 | 7324 ft | 175 kts | 333° |
| 2026-04-21 04:33 | 15.54431 | 120.35951 | 7332 ft | 175 kts | 333° |
| 2026-04-21 04:33 | 15.55507 | 120.35347 | 7347 ft | 177 kts | 333° |
| 2026-04-21 04:33 | 15.56589 | 120.34737 | 7347 ft | 178 kts | 333° |
| 2026-04-21 04:34 | 15.57673 | 120.34124 | 7335 ft | 177 kts | 332° |
| 2026-04-21 04:34 | 15.58753 | 120.33513 | 7362 ft | 179 kts | 332° |
| 2026-04-21 04:34 | 15.59850 | 120.32896 | 7343 ft | 179 kts | 333° |
| 2026-04-21 04:34 | 15.60944 | 120.32278 | 7339 ft | 179 kts | 332° |
| 2026-04-21 04:35 | 15.62037 | 120.31663 | 7338 ft | 178 kts | 333° |
| 2026-04-21 04:35 | 15.63124 | 120.31051 | 7342 ft | 179 kts | 332° |
| 2026-04-21 04:35 | 15.64218 | 120.30432 | 7343 ft | 180 kts | 332° |
| 2026-04-21 04:35 | 15.65315 | 120.29812 | 7333 ft | 179 kts | 332° |
| 2026-04-21 04:36 | 15.66405 | 120.29195 | 7329 ft | 178 kts | 332° |
| 2026-04-21 04:36 | 15.67484 | 120.28602 | 7327 ft | 178 kts | 335° |
| 2026-04-21 04:36 | 15.68659 | 120.28310 | 7334 ft | 175 kts | 6° |
| 2026-04-21 04:36 | 15.69868 | 120.28470 | 7327 ft | 175 kts | 9° |
| 2026-04-21 04:37 | 15.71067 | 120.28666 | 7324 ft | 174 kts | 10° |
| 2026-04-21 04:37 | 15.72261 | 120.28869 | 7323 ft | 174 kts | 11° |
| 2026-04-21 04:37 | 15.73454 | 120.29077 | 7328 ft | 174 kts | 10° |
| 2026-04-21 04:37 | 15.74400 | 120.29222 | 7341 ft | 174 kts | 7° |
| 2026-04-21 04:38 | 15.75601 | 120.29323 | 7351 ft | 173 kts | 4° |
| 2026-04-21 04:38 | 15.76805 | 120.29399 | 7356 ft | 174 kts | 5° |
| 2026-04-21 04:38 | 15.78010 | 120.29500 | 7352 ft | 173 kts | 6° |
| 2026-04-21 04:38 | 15.79212 | 120.29612 | 7356 ft | 174 kts | 6° |
| 2026-04-21 04:39 | 15.80417 | 120.29717 | 7358 ft | 174 kts | 5° |
| 2026-04-21 04:39 | 15.81621 | 120.29815 | 7356 ft | 174 kts | 5° |
| 2026-04-21 04:39 | 15.82828 | 120.29914 | 7359 ft | 174 kts | 6° |
| 2026-04-21 04:39 | 15.84034 | 120.30015 | 7360 ft | 174 kts | 5° |
| 2026-04-21 04:40 | 15.85244 | 120.30118 | 7364 ft | 174 kts | 6° |
| 2026-04-21 04:40 | 15.86454 | 120.30221 | 7363 ft | 174 kts | 5° |
| 2026-04-21 04:40 | 15.87661 | 120.30321 | 7377 ft | 174 kts | 6° |
| 2026-04-21 04:40 | 15.88870 | 120.30425 | 7371 ft | 174 kts | 6° |
| 2026-04-21 04:41 | 15.90077 | 120.30528 | 7363 ft | 174 kts | 5° |
| 2026-04-21 04:41 | 15.91284 | 120.30628 | 7347 ft | 174 kts | 5° |
| 2026-04-21 04:41 | 15.92497 | 120.30728 | 7316 ft | 175 kts | 5° |
| 2026-04-21 04:41 | 15.93714 | 120.30832 | 7279 ft | 176 kts | 6° |
| 2026-04-21 04:42 | 15.94934 | 120.30936 | 7248 ft | 176 kts | 6° |
| 2026-04-21 04:42 | 15.96154 | 120.31038 | 7234 ft | 175 kts | 5° |
| 2026-04-21 04:42 | 15.97352 | 120.31139 | 7231 ft | 175 kts | 6° |
| 2026-04-21 04:42 | 15.98559 | 120.31241 | 7225 ft | 173 kts | 6° |
| 2026-04-21 04:43 | 15.99760 | 120.31342 | 7224 ft | 173 kts | 6° |
| 2026-04-21 04:43 | 16.00956 | 120.31443 | 7224 ft | 172 kts | 5° |
| 2026-04-21 04:43 | 16.02151 | 120.31545 | 7225 ft | 172 kts | 5° |
| 2026-04-21 04:43 | 16.03343 | 120.31645 | 7225 ft | 172 kts | 5° |
| 2026-04-21 04:44 | 16.04536 | 120.31745 | 7229 ft | 172 kts | 5° |
| 2026-04-21 04:44 | 16.05727 | 120.31845 | 7226 ft | 172 kts | 5° |
| 2026-04-21 04:44 | 16.06918 | 120.31946 | 7227 ft | 171 kts | 5° |
| 2026-04-21 04:44 | 16.08106 | 120.32046 | 7227 ft | 171 kts | 5° |
| 2026-04-21 04:45 | 16.09293 | 120.32147 | 7227 ft | 171 kts | 5° |
| 2026-04-21 04:45 | 16.10481 | 120.32247 | 7230 ft | 171 kts | 5° |
| 2026-04-21 04:45 | 16.11668 | 120.32347 | 7230 ft | 171 kts | 5° |
| 2026-04-21 04:45 | 16.12856 | 120.32448 | 7228 ft | 171 kts | 5° |
| 2026-04-21 04:46 | 16.14040 | 120.32547 | 7229 ft | 171 kts | 5° |
| 2026-04-21 04:46 | 16.15219 | 120.32647 | 7230 ft | 170 kts | 5° |
| 2026-04-21 04:46 | 16.16401 | 120.32748 | 7229 ft | 171 kts | 5° |
| 2026-04-21 04:46 | 16.17585 | 120.32848 | 7229 ft | 171 kts | 5° |
| 2026-04-21 04:47 | 16.18770 | 120.32947 | 7229 ft | 171 kts | 5° |
| 2026-04-21 04:47 | 16.19953 | 120.33047 | 7229 ft | 171 kts | 5° |
| 2026-04-21 04:47 | 16.21138 | 120.33147 | 7229 ft | 171 kts | 5° |
| 2026-04-21 04:47 | 16.22324 | 120.33248 | 7229 ft | 171 kts | 5° |
| 2026-04-21 04:48 | 16.23511 | 120.33348 | 7229 ft | 171 kts | 5° |
| 2026-04-21 04:48 | 16.24700 | 120.33448 | 7224 ft | 171 kts | 5° |
| 2026-04-21 04:48 | 16.25890 | 120.33549 | 7224 ft | 172 kts | 5° |
| 2026-04-21 04:48 | 16.26850 | 120.33629 | 7221 ft | 172 kts | 5° |
| 2026-04-21 04:49 | 16.28040 | 120.33730 | 7221 ft | 172 kts | 6° |
| 2026-04-21 04:49 | 16.29213 | 120.33830 | 7222 ft | 171 kts | 6° |
| 2026-04-21 04:49 | 16.30402 | 120.33931 | 7220 ft | 171 kts | 6° |
| 2026-04-21 04:49 | 16.31606 | 120.34033 | 7221 ft | 171 kts | 5° |
| 2026-04-21 04:50 | 16.32796 | 120.34134 | 7222 ft | 172 kts | 6° |
| 2026-04-21 04:50 | 16.33967 | 120.34232 | 7224 ft | 171 kts | 5° |
| 2026-04-21 04:50 | 16.35154 | 120.34332 | 7222 ft | 171 kts | 5° |
| 2026-04-21 04:50 | 16.36343 | 120.34431 | 7222 ft | 171 kts | 5° |
| 2026-04-21 04:51 | 16.37530 | 120.34530 | 7221 ft | 171 kts | 5° |
| 2026-04-21 04:51 | 16.38713 | 120.34629 | 7221 ft | 171 kts | 5° |
| 2026-04-21 04:51 | 16.39902 | 120.34728 | 7222 ft | 171 kts | 6° |
| 2026-04-21 04:51 | 16.41090 | 120.34827 | 7221 ft | 171 kts | 5° |
| 2026-04-21 04:52 | 16.42281 | 120.34925 | 7221 ft | 172 kts | 5° |
| 2026-04-21 04:52 | 16.43471 | 120.35024 | 7221 ft | 171 kts | 6° |
| 2026-04-21 04:52 | 16.44660 | 120.35126 | 7221 ft | 171 kts | 6° |
| 2026-04-21 04:52 | 16.45850 | 120.35227 | 7222 ft | 172 kts | 6° |
| 2026-04-21 04:53 | 16.47041 | 120.35328 | 7222 ft | 172 kts | 6° |
| 2026-04-21 04:53 | 16.48230 | 120.35429 | 7221 ft | 172 kts | 6° |
| 2026-04-21 04:53 | 16.49420 | 120.35528 | 7219 ft | 172 kts | 6° |
| 2026-04-21 04:53 | 16.50611 | 120.35628 | 7219 ft | 171 kts | 6° |
| 2026-04-21 04:54 | 16.51798 | 120.35727 | 7219 ft | 171 kts | 5° |
| 2026-04-21 04:54 | 16.52984 | 120.35823 | 7223 ft | 171 kts | 5° |
| 2026-04-21 04:54 | 16.54173 | 120.35920 | 7225 ft | 171 kts | 5° |
| 2026-04-21 04:54 | 16.55364 | 120.36015 | 7222 ft | 172 kts | 5° |
| 2026-04-21 04:55 | 16.56556 | 120.36110 | 7224 ft | 172 kts | 5° |
| 2026-04-21 04:55 | 16.57746 | 120.36205 | 7221 ft | 172 kts | 5° |
| 2026-04-21 04:55 | 16.58938 | 120.36299 | 7219 ft | 172 kts | 5° |
| 2026-04-21 04:55 | 16.60131 | 120.36393 | 7221 ft | 172 kts | 5° |
| 2026-04-21 04:56 | 16.61323 | 120.36485 | 7225 ft | 172 kts | 5° |
| 2026-04-21 04:56 | 16.62514 | 120.36577 | 7223 ft | 172 kts | 5° |
| 2026-04-21 04:56 | 16.63709 | 120.36671 | 7227 ft | 172 kts | 5° |
| 2026-04-21 04:56 | 16.64906 | 120.36766 | 7223 ft | 173 kts | 5° |
| 2026-04-21 04:57 | 16.66103 | 120.36858 | 7223 ft | 173 kts | 5° |
| 2026-04-21 04:57 | 16.67298 | 120.36947 | 7220 ft | 172 kts | 5° |
| 2026-04-21 04:57 | 16.68478 | 120.37034 | 7218 ft | 172 kts | 5° |
| 2026-04-21 04:57 | 16.69674 | 120.37121 | 7222 ft | 172 kts | 5° |
| 2026-04-21 04:58 | 16.70868 | 120.37207 | 7219 ft | 172 kts | 5° |
| 2026-04-21 04:58 | 16.72058 | 120.37293 | 7215 ft | 172 kts | 5° |
| 2026-04-21 04:58 | 16.73250 | 120.37379 | 7216 ft | 171 kts | 5° |
| 2026-04-21 04:58 | 16.74440 | 120.37463 | 7218 ft | 171 kts | 5° |
| 2026-04-21 04:59 | 16.75627 | 120.37546 | 7220 ft | 171 kts | 5° |
| 2026-04-21 04:59 | 16.76819 | 120.37629 | 7221 ft | 172 kts | 5° |
| 2026-04-21 04:59 | 16.78010 | 120.37712 | 7220 ft | 172 kts | 5° |
| 2026-04-21 04:59 | 16.79203 | 120.37794 | 7223 ft | 172 kts | 5° |
| 2026-04-21 05:00 | 16.80008 | 120.37849 | 7224 ft | 172 kts | 5° |
| 2026-04-21 05:00 | 16.81199 | 120.37930 | 7223 ft | 172 kts | 5° |
| 2026-04-21 05:00 | 16.83574 | 120.38091 | 7221 ft | 172 kts | 5° |
| 2026-04-21 05:01 | 16.84772 | 120.38179 | 7220 ft | 172 kts | 7° |
| 2026-04-21 05:01 | 16.85957 | 120.38358 | 7221 ft | 172 kts | 10° |
| 2026-04-21 05:01 | 16.87140 | 120.38570 | 7222 ft | 172 kts | 10° |
| 2026-04-21 05:01 | 16.88331 | 120.38724 | 7223 ft | 172 kts | 6° |
| 2026-04-21 05:02 | 16.89534 | 120.38829 | 7221 ft | 173 kts | 6° |
| 2026-04-21 05:02 | 16.90734 | 120.38952 | 7223 ft | 174 kts | 7° |
| 2026-04-21 05:02 | 16.91932 | 120.39091 | 7222 ft | 173 kts | 7° |
| 2026-04-21 05:02 | 16.93124 | 120.39227 | 7222 ft | 172 kts | 7° |
| 2026-04-21 05:03 | 16.94319 | 120.39354 | 7220 ft | 172 kts | 7° |
| 2026-04-21 05:03 | 16.95511 | 120.39480 | 7213 ft | 173 kts | 7° |
| 2026-04-21 05:03 | 16.96706 | 120.39611 | 7211 ft | 173 kts | 7° |
| 2026-04-21 05:03 | 16.97896 | 120.39743 | 7232 ft | 171 kts | 7° |
| 2026-04-21 05:04 | 16.99077 | 120.39872 | 7265 ft | 170 kts | 7° |
| 2026-04-21 05:04 | 17.00246 | 120.39998 | 7302 ft | 168 kts | 7° |
| 2026-04-21 05:04 | 17.01411 | 120.40125 | 7322 ft | 168 kts | 7° |
| 2026-04-21 05:04 | 17.02576 | 120.40252 | 7331 ft | 169 kts | 7° |
| 2026-04-21 05:05 | 17.03745 | 120.40381 | 7337 ft | 169 kts | 7° |
| 2026-04-21 05:05 | 17.04917 | 120.40508 | 7340 ft | 170 kts | 7° |
| 2026-04-21 05:05 | 17.06095 | 120.40636 | 7340 ft | 171 kts | 7° |
| 2026-04-21 05:05 | 17.07278 | 120.40765 | 7339 ft | 171 kts | 7° |
| 2026-04-21 05:06 | 17.08464 | 120.40895 | 7340 ft | 171 kts | 7° |
| 2026-04-21 05:06 | 17.09651 | 120.41025 | 7340 ft | 172 kts | 7° |
| 2026-04-21 05:06 | 17.10840 | 120.41154 | 7340 ft | 172 kts | 7° |
| 2026-04-21 05:06 | 17.12030 | 120.41284 | 7340 ft | 172 kts | 7° |
| 2026-04-21 05:07 | 17.13219 | 120.41414 | 7341 ft | 172 kts | 7° |
| 2026-04-21 05:07 | 17.14410 | 120.41544 | 7341 ft | 172 kts | 7° |
| 2026-04-21 05:07 | 17.15603 | 120.41675 | 7340 ft | 173 kts | 7° |
| 2026-04-21 05:07 | 17.16796 | 120.41805 | 7340 ft | 172 kts | 7° |
| 2026-04-21 05:08 | 17.17988 | 120.41934 | 7340 ft | 172 kts | 7° |
| 2026-04-21 05:08 | 17.19176 | 120.42064 | 7340 ft | 172 kts | 7° |
| 2026-04-21 05:08 | 17.20369 | 120.42195 | 7345 ft | 173 kts | 7° |
| 2026-04-21 05:08 | 17.21564 | 120.42326 | 7348 ft | 173 kts | 7° |
| 2026-04-21 05:09 | 17.22764 | 120.42457 | 7351 ft | 174 kts | 7° |
| 2026-04-21 05:09 | 17.23966 | 120.42587 | 7350 ft | 174 kts | 7° |
| 2026-04-21 05:09 | 17.25172 | 120.42719 | 7344 ft | 174 kts | 7° |
| 2026-04-21 05:09 | 17.26374 | 120.42851 | 7339 ft | 174 kts | 7° |
| 2026-04-21 05:10 | 17.27576 | 120.42982 | 7338 ft | 173 kts | 7° |
| 2026-04-21 05:10 | 17.28772 | 120.43114 | 7337 ft | 173 kts | 7° |
| 2026-04-21 05:10 | 17.29969 | 120.43243 | 7338 ft | 173 kts | 7° |
| 2026-04-21 05:10 | 17.31165 | 120.43374 | 7337 ft | 173 kts | 7° |
| 2026-04-21 05:11 | 17.32361 | 120.43507 | 7339 ft | 173 kts | 7° |
| 2026-04-21 05:11 | 17.33553 | 120.43638 | 7341 ft | 173 kts | 6° |
| 2026-04-21 05:11 | 17.34749 | 120.43766 | 7340 ft | 173 kts | 6° |
| 2026-04-21 05:11 | 17.35944 | 120.43896 | 7339 ft | 173 kts | 6° |
| 2026-04-21 05:12 | 17.37136 | 120.44028 | 7339 ft | 172 kts | 7° |
| 2026-04-21 05:12 | 17.38328 | 120.44159 | 7339 ft | 172 kts | 6° |
| 2026-04-21 05:12 | 17.39523 | 120.44291 | 7342 ft | 172 kts | 6° |
| 2026-04-21 05:12 | 17.40713 | 120.44419 | 7344 ft | 172 kts | 6° |
| 2026-04-21 05:13 | 17.41903 | 120.44549 | 7346 ft | 172 kts | 7° |
| 2026-04-21 05:13 | 17.43095 | 120.44681 | 7347 ft | 172 kts | 6° |
| 2026-04-21 05:13 | 17.44285 | 120.44811 | 7349 ft | 172 kts | 6° |
| 2026-04-21 05:13 | 17.45475 | 120.44941 | 7351 ft | 172 kts | 6° |
| 2026-04-21 05:14 | 17.46667 | 120.45072 | 7353 ft | 172 kts | 6° |
| 2026-04-21 05:14 | 17.47859 | 120.45203 | 7355 ft | 173 kts | 6° |
| 2026-04-21 05:14 | 17.49056 | 120.45334 | 7355 ft | 173 kts | 6° |
| 2026-04-21 05:14 | 17.50254 | 120.45465 | 7353 ft | 173 kts | 6° |
| 2026-04-21 05:15 | 17.51453 | 120.45597 | 7349 ft | 173 kts | 6° |
| 2026-04-21 05:15 | 17.52652 | 120.45729 | 7348 ft | 173 kts | 6° |
| 2026-04-21 05:15 | 17.53847 | 120.45860 | 7347 ft | 173 kts | 6° |
| 2026-04-21 05:15 | 17.55041 | 120.45989 | 7348 ft | 172 kts | 6° |
| 2026-04-21 05:16 | 17.56233 | 120.46120 | 7348 ft | 172 kts | 6° |
| 2026-04-21 05:16 | 17.57409 | 120.46250 | 7349 ft | 172 kts | 6° |
| 2026-04-21 05:16 | 17.58617 | 120.46382 | 7348 ft | 172 kts | 6° |
| 2026-04-21 05:16 | 17.59792 | 120.46511 | 7348 ft | 172 kts | 6° |
| 2026-04-21 05:17 | 17.60981 | 120.46641 | 7349 ft | 172 kts | 6° |
| 2026-04-21 05:17 | 17.62171 | 120.46773 | 7350 ft | 172 kts | 6° |
| 2026-04-21 05:17 | 17.63360 | 120.46903 | 7349 ft | 172 kts | 6° |
| 2026-04-21 05:17 | 17.64553 | 120.47034 | 7350 ft | 172 kts | 6° |
| 2026-04-21 05:18 | 17.65744 | 120.47164 | 7350 ft | 172 kts | 6° |
| 2026-04-21 05:18 | 17.66938 | 120.47296 | 7349 ft | 172 kts | 6° |
| 2026-04-21 05:18 | 17.68129 | 120.47427 | 7348 ft | 172 kts | 6° |
| 2026-04-21 05:18 | 17.69321 | 120.47558 | 7349 ft | 172 kts | 6° |
| 2026-04-21 05:19 | 17.70514 | 120.47688 | 7351 ft | 172 kts | 6° |
| 2026-04-21 05:19 | 17.71702 | 120.47819 | 7350 ft | 172 kts | 6° |
| 2026-04-21 05:19 | 17.72894 | 120.47951 | 7349 ft | 172 kts | 6° |
| 2026-04-21 05:19 | 17.74086 | 120.48082 | 7349 ft | 172 kts | 6° |
| 2026-04-21 05:20 | 17.75277 | 120.48211 | 7350 ft | 172 kts | 6° |
| 2026-04-21 05:20 | 17.76465 | 120.48342 | 7350 ft | 172 kts | 6° |
| 2026-04-21 05:20 | 17.77655 | 120.48473 | 7349 ft | 172 kts | 6° |
| 2026-04-21 05:20 | 17.78847 | 120.48605 | 7349 ft | 172 kts | 6° |
| 2026-04-21 05:21 | 17.80038 | 120.48735 | 7350 ft | 172 kts | 6° |
| 2026-04-21 05:21 | 17.81231 | 120.48866 | 7351 ft | 172 kts | 6° |
| 2026-04-21 05:21 | 17.82423 | 120.48997 | 7349 ft | 172 kts | 6° |
| 2026-04-21 05:21 | 17.83616 | 120.49129 | 7350 ft | 172 kts | 6° |
| 2026-04-21 05:22 | 17.84809 | 120.49261 | 7350 ft | 172 kts | 6° |
| 2026-04-21 05:22 | 17.85968 | 120.49388 | 7350 ft | 172 kts | 6° |
| 2026-04-21 05:22 | 17.87163 | 120.49519 | 7350 ft | 172 kts | 6° |
| 2026-04-21 05:22 | 17.88356 | 120.49651 | 7350 ft | 173 kts | 6° |
| 2026-04-21 05:23 | 17.89552 | 120.49782 | 7351 ft | 173 kts | 6° |
| 2026-04-21 05:23 | 17.90761 | 120.49916 | 7109 ft | 175 kts | 6° |
| 2026-04-21 05:23 | 17.91154 | 120.49960 | 7028 ft | 174 kts | 6° |
| 2026-04-21 05:23 | 17.93140 | 120.50174 | 6611 ft | 171 kts | 6° |
| 2026-04-21 05:24 | 17.94285 | 120.50300 | 6366 ft | 159 kts | 7° |
| 2026-04-21 05:24 | 17.95348 | 120.50420 | 6113 ft | 150 kts | 7° |
| 2026-04-21 05:24 | 17.96374 | 120.50535 | 5809 ft | 148 kts | 7° |
| 2026-04-21 05:24 | 17.97400 | 120.50647 | 5482 ft | 148 kts | 7° |
| 2026-04-21 05:25 | 17.98425 | 120.50761 | 5157 ft | 148 kts | 8° |
| 2026-04-21 05:25 | 17.99333 | 120.51215 | 4829 ft | 146 kts | 36° |
| 2026-04-21 05:25 | 18.00279 | 120.51589 | 4533 ft | 145 kts | 12° |
| 2026-04-21 05:25 | 18.01264 | 120.51655 | 4319 ft | 141 kts | 4° |
| 2026-04-21 05:26 | 18.02089 | 120.51751 | 4197 ft | 132 kts | 6° |
| 2026-04-21 05:26 | 18.02999 | 120.51816 | 3913 ft | 130 kts | 4° |
| 2026-04-21 05:26 | 18.03886 | 120.51858 | 3690 ft | 125 kts | 4° |
| 2026-04-21 05:26 | 18.04770 | 120.51881 | 3400 ft | 128 kts | 4° |
| 2026-04-21 05:27 | 18.05664 | 120.51920 | 3105 ft | 130 kts | 4° |
| 2026-04-21 05:27 | 18.06496 | 120.51966 | 2859 ft | 114 kts | 6° |
| 2026-04-21 05:27 | 18.07287 | 120.52032 | 2514 ft | 114 kts | 19° |
| 2026-04-21 05:27 | 18.08103 | 120.52135 | 2002 ft | 118 kts | 20° |
| 2026-04-21 05:28 | 18.08897 | 120.52208 | 1680 ft | 108 kts | 6° |
| 2026-04-21 05:28 | 18.09643 | 120.52280 | 1581 ft | 110 kts | 9° |
| 2026-04-21 05:28 | 18.10382 | 120.52376 | 1465 ft | 106 kts | 8° |
| 2026-04-21 05:28 | 18.11143 | 120.52465 | 1344 ft | 113 kts | 4° |
| 2026-04-21 05:29 | 18.11888 | 120.52546 | 1247 ft | 104 kts | 2° |
| 2026-04-21 05:29 | 18.12621 | 120.52615 | 1008 ft | 108 kts | 360° |
| 2026-04-21 05:29 | 18.13335 | 120.52692 | 908 ft | 97 kts | 1° |
| 2026-04-21 05:29 | 18.13991 | 120.52759 | 711 ft | 93 kts | 360° |
| 2026-04-21 05:30 | 18.14647 | 120.52819 | 449 ft | 97 kts | 360° |
| 2026-04-21 05:30 | 18.15301 | 120.52885 | 304 ft | 93 kts | 0° |
| 2026-04-21 05:30 | 18.15944 | 120.52943 | 139 ft | 91 kts | 1° |
| 2026-04-21 05:30 | 18.16528 | 120.53000 | 29 ft | 78 kts | 2° |
| 2026-04-21 05:31 | 18.16958 | 120.53041 | 23 ft | 48 kts | 4° |
| 2026-04-21 05:31 | 18.17230 | 120.53066 | 23 ft | 32 kts | 8° |
| 2026-04-21 05:31 | 18.17421 | 120.53083 | 24 ft | 24 kts | 355° |
| 2026-04-21 05:31 | 18.17580 | 120.53103 | 24 ft | 24 kts | 7° |
| 2026-04-21 05:32 | 18.17762 | 120.53122 | 22 ft | 28 kts | 5° |
| 2026-04-21 05:32 | 18.17946 | 120.53141 | 23 ft | 25 kts | 6° |
| 2026-04-21 05:32 | 18.18076 | 120.53154 | 22 ft | 13 kts | 13° |
| 2026-04-21 05:32 | 18.18108 | 120.53208 | 21 ft | 8 kts | 95° |
| 2026-04-21 05:33 | 18.18102 | 120.53272 | 20 ft | 7 kts | 98° |
| 2026-04-21 05:33 | 18.18095 | 120.53286 | 19 ft | 4 kts | 141° |
| 2026-04-21 05:33 | 18.18061 | 120.53290 | 19 ft | 3 kts | 171° |
| 2026-04-21 05:33 | 18.18062 | 120.53302 | 19 ft | 4 kts | 57° |
| 2026-04-21 05:34 | 18.18071 | 120.53323 | 19 ft | 1 kts | 66° |
| 2026-04-21 05:34 | 18.18071 | 120.53324 | 19 ft | 0 kts | 67° |